createdAt,value
2023-05-20T00:02:15.962Z,100139.80
2023-05-20T00:04:44.153Z,100142.00
2023-05-20T00:07:11.872Z,100136.22
2023-05-20T00:09:39.856Z,100134.29
2023-05-20T00:12:07.617Z,100133.55
2023-05-20T00:14:35.680Z,100132.80
2023-05-20T00:17:02.983Z,100129.31
2023-05-20T00:19:30.652Z,100128.86
2023-05-20T00:21:58.176Z,100125.87
2023-05-20T00:24:26.753Z,100126.39
2023-05-20T00:26:53.810Z,100131.11
2023-05-20T00:29:21.752Z,100132.73
2023-05-20T00:31:49.246Z,100135.86
2023-05-20T00:34:16.564Z,100131.91
2023-05-20T00:36:45.656Z,100130.15
2023-05-20T00:39:13.115Z,100134.49
2023-05-20T00:41:40.469Z,100134.61
2023-05-20T00:44:08.332Z,100132.58
2023-05-20T00:46:35.758Z,100136.02
2023-05-20T00:49:03.699Z,100134.67
2023-05-20T00:51:31.425Z,100140.34
2023-05-20T00:53:58.982Z,100139.36
2023-05-20T00:56:26.414Z,100138.82
2023-05-20T00:58:54.003Z,100131.81
2023-05-20T01:01:21.510Z,100132.45
2023-05-20T01:03:49.375Z,100133.12
2023-05-20T01:06:17.094Z,100134.58
2023-05-20T01:08:45.773Z,100133.18
2023-05-20T01:11:38.325Z,100131.33
2023-05-20T01:14:08.226Z,100127.02
2023-05-20T01:16:36.669Z,100126.38
2023-05-20T01:19:14.446Z,100126.45
2023-05-20T01:21:42.992Z,100125.52
2023-05-20T01:24:11.064Z,100127.64
2023-05-20T01:26:38.428Z,100128.13
2023-05-20T01:29:05.981Z,100129.45
2023-05-20T01:31:38.662Z,100129.14
2023-05-20T01:34:06.837Z,100130.71
2023-05-20T01:36:34.495Z,100132.40
2023-05-20T01:39:03.286Z,100127.91
2023-05-20T01:41:33.935Z,100131.41
2023-05-20T01:44:01.778Z,100131.91
2023-05-20T01:46:33.217Z,100130.94
2023-05-20T01:49:00.727Z,100134.63
2023-05-20T01:51:29.384Z,100134.23
2023-05-20T01:53:56.532Z,100133.15
2023-05-20T01:56:23.898Z,100131.41
2023-05-20T01:58:52.303Z,100141.65
2023-05-20T02:01:19.768Z,100142.44
2023-05-20T02:03:46.925Z,100138.12
2023-05-20T02:06:14.164Z,100141.91
2023-05-20T02:08:42.189Z,100139.08
2023-05-20T02:11:09.746Z,100142.48
2023-05-20T02:13:37.613Z,100140.15
2023-05-20T02:16:05.742Z,100143.10
2023-05-20T02:18:35.006Z,100147.08
2023-05-20T02:21:05.988Z,100142.26
2023-05-20T02:23:34.113Z,100138.64
2023-05-20T02:26:01.229Z,100143.60
2023-05-20T02:28:29.064Z,100141.48
2023-05-20T02:30:56.517Z,100146.39
2023-05-20T02:33:23.626Z,100144.79
2023-05-20T02:35:50.775Z,100148.77
2023-05-20T02:38:18.026Z,100147.42
2023-05-20T02:40:45.388Z,100145.70
2023-05-20T02:43:12.639Z,100143.50
2023-05-20T02:45:40.929Z,100140.84
2023-05-20T02:48:08.273Z,100144.32
2023-05-20T02:50:39.849Z,100145.89
2023-05-20T02:53:07.302Z,100146.85
2023-05-20T02:55:36.484Z,100149.41
2023-05-20T02:58:03.972Z,100155.17
2023-05-20T03:00:35.173Z,100159.08
2023-05-20T03:03:02.270Z,100156.21
2023-05-20T03:05:29.784Z,100158.71
2023-05-20T03:07:57.037Z,100163.00
2023-05-20T03:10:24.183Z,100163.16
2023-05-20T03:12:51.854Z,100160.92
2023-05-20T03:15:19.009Z,100156.23
2023-05-20T03:17:46.132Z,100167.44
2023-05-20T03:20:15.085Z,100169.40
2023-05-20T03:22:42.287Z,100166.12
2023-05-20T03:25:09.760Z,100171.19
2023-05-20T03:27:38.021Z,100168.50
2023-05-20T03:30:06.820Z,100173.59
2023-05-20T03:32:34.526Z,100171.25
2023-05-20T03:35:03.063Z,100171.85
2023-05-20T03:37:30.918Z,100172.70
2023-05-20T03:39:58.076Z,100176.49
2023-05-20T03:42:25.626Z,100180.64
2023-05-20T03:44:52.983Z,100182.79
2023-05-20T03:47:20.024Z,100184.27
2023-05-20T03:49:47.326Z,100179.35
2023-05-20T03:52:14.845Z,100181.90
2023-05-20T03:54:42.098Z,100179.91
2023-05-20T03:57:10.495Z,100183.73
2023-05-20T03:59:37.826Z,100181.70
2023-05-20T04:02:05.838Z,100184.84
2023-05-20T04:04:33.049Z,100183.02
2023-05-20T04:07:00.632Z,100188.71
2023-05-20T04:09:27.973Z,100188.58
2023-05-20T04:11:55.526Z,100187.75
2023-05-20T04:14:22.883Z,100185.72
2023-05-20T04:16:51.086Z,100190.38
2023-05-20T04:19:19.249Z,100195.18
2023-05-20T04:21:46.623Z,100188.83
2023-05-20T04:24:14.249Z,100188.79
2023-05-20T04:26:42.319Z,100198.08
2023-05-20T04:29:09.570Z,100198.14
2023-05-20T04:31:38.086Z,100197.10
2023-05-20T04:34:05.411Z,100202.80
2023-05-20T04:36:34.295Z,100202.95
2023-05-20T04:39:03.181Z,100201.20
2023-05-20T04:41:31.098Z,100217.59
2023-05-20T04:44:01.380Z,100213.41
2023-05-20T04:46:29.487Z,100217.02
2023-05-20T04:48:58.135Z,100218.50
2023-05-20T04:51:25.383Z,100214.48
2023-05-20T04:53:52.636Z,100211.27
2023-05-20T04:56:20.353Z,100212.52
2023-05-20T04:58:48.804Z,100219.83
2023-05-20T05:01:15.979Z,100214.41
2023-05-20T05:03:43.082Z,100219.45
2023-05-20T05:06:10.266Z,100219.59
2023-05-20T05:08:39.127Z,100227.16
2023-05-20T05:11:06.625Z,100221.14
2023-05-20T05:13:34.108Z,100216.71
2023-05-20T05:16:02.429Z,100213.14
2023-05-20T05:18:30.694Z,100221.27
2023-05-20T05:21:07.876Z,100228.92
2023-05-20T05:23:36.464Z,100218.45
2023-05-20T05:26:03.817Z,100226.28
2023-05-20T05:28:31.887Z,100218.30
2023-05-20T05:30:59.050Z,100225.55
2023-05-20T05:33:26.839Z,100222.08
2023-05-20T05:35:58.674Z,100227.94
2023-05-20T05:38:26.015Z,100222.55
2023-05-20T05:40:53.343Z,100227.68
2023-05-20T05:43:21.384Z,100223.67
2023-05-20T05:45:49.009Z,100234.77
2023-05-20T05:48:16.294Z,100227.10
2023-05-20T05:50:45.652Z,100229.88
2023-05-20T05:53:13.767Z,100232.31
2023-05-20T05:55:42.106Z,100226.42
2023-05-20T05:58:09.252Z,100229.94
2023-05-20T06:00:37.598Z,100227.31
2023-05-20T06:03:05.307Z,100225.67
2023-05-20T06:05:33.947Z,100224.39
2023-05-20T06:08:01.590Z,100234.40
2023-05-20T06:10:29.464Z,100233.62
2023-05-20T06:12:57.079Z,100238.20
2023-05-20T06:15:25.325Z,100236.98
2023-05-20T06:17:53.184Z,100243.88
2023-05-20T06:20:20.876Z,100238.82
2023-05-20T06:22:48.383Z,100228.95
2023-05-20T06:25:16.170Z,100229.52
2023-05-20T06:27:43.552Z,100229.65
2023-05-20T06:30:13.468Z,100233.16
2023-05-20T06:32:42.537Z,100229.38
2023-05-20T06:35:09.892Z,100232.20
2023-05-20T06:37:37.298Z,100224.73
2023-05-20T06:40:05.961Z,100229.07
2023-05-20T06:42:33.215Z,100233.67
2023-05-20T06:45:05.274Z,100233.87
2023-05-20T06:47:44.988Z,100246.91
2023-05-20T06:50:12.460Z,100250.79
2023-05-20T06:52:40.208Z,100242.63
2023-05-20T06:55:09.598Z,100232.61
2023-05-20T06:57:36.976Z,100235.61
2023-05-20T07:00:05.415Z,100221.64
2023-05-20T07:02:35.912Z,100254.74
2023-05-20T07:05:03.170Z,100230.10
2023-05-20T07:07:30.715Z,100233.36
2023-05-20T07:09:59.318Z,100228.36
2023-05-20T07:12:26.377Z,100233.55
2023-05-20T07:14:53.266Z,100236.15
2023-05-20T07:17:21.960Z,100240.67
2023-05-20T07:19:48.880Z,100233.02
2023-05-20T07:22:16.405Z,100249.83
2023-05-20T07:25:07.027Z,100242.90
2023-05-20T07:27:36.120Z,100237.08
2023-05-20T07:30:03.726Z,100243.33
2023-05-20T07:32:32.408Z,100241.55
2023-05-20T07:35:00.974Z,100252.16
2023-05-20T07:37:27.985Z,100239.11
2023-05-20T07:39:56.123Z,100239.35
2023-05-20T07:42:23.198Z,100231.63
2023-05-20T07:44:54.286Z,100237.65
2023-05-20T07:47:22.287Z,100238.66
2023-05-20T07:49:49.637Z,100238.20
2023-05-20T07:52:17.406Z,100238.98
2023-05-20T07:54:45.383Z,100247.03
2023-05-20T07:57:12.840Z,100237.64
2023-05-20T07:59:41.110Z,100227.35
2023-05-20T08:02:09.096Z,100233.45
2023-05-20T08:04:36.668Z,100238.73
2023-05-20T08:07:04.310Z,100233.96
2023-05-20T08:09:40.766Z,100243.06
2023-05-20T08:12:08.514Z,100249.75
2023-05-20T08:14:35.740Z,100230.80
2023-05-20T08:17:04.397Z,100240.00
2023-05-20T08:19:31.811Z,100230.88
2023-05-20T08:21:59.014Z,100229.79
2023-05-20T08:24:27.460Z,100236.33
2023-05-20T08:26:55.556Z,100223.36
2023-05-20T08:29:23.980Z,100228.52
2023-05-20T08:31:52.256Z,100212.42
2023-05-20T08:34:19.507Z,100214.72
2023-05-20T08:36:46.587Z,100223.52
2023-05-20T08:39:14.859Z,100213.98
2023-05-20T08:41:42.016Z,100231.27
2023-05-20T08:44:12.953Z,100218.20
2023-05-20T08:46:41.140Z,100219.38
2023-05-20T08:49:08.479Z,100224.11
